Tokyo, Japan
Current Conditions -  °F | °C
As of 1:08 PM on Thursday 18 Dec 2014 (Local Time) from RJTT Reporting Station
Few Clouds Few Clouds  
Wind Chill: 42°   Ceiling: Unl
Heat Index: 48°   Visibility: 6mi
Dew Point:   Wind: 17mph
Humidity: 20%   Direction: 290°WNW
Pressure: 29.88"   Gusts: 29mph
Location:  35.67°N, 139.77°E
Report Text: RJTT 180408Z 29015G25KT 270V340 9999 FEW030 09/M13 Q1012 RMK 1CU030 A2990
Loading
Personal Weather Stations






























Interactive Weather Map New forecast layout! Learn more

10-Day Weather Forecast

Advertisements
Track Severe Weather on mobile